Time;durP1;ratioP1;P1;durP2;ratioP2;P2;SDS_P1;SDS_P2;PMS_P1;PMS_P2;Temp;Humidity;BMP_temperature;BMP_pressure;BME280_temperature;BME280_humidity;BME280_pressure;Samples;Min_cycle;Max_cycle;Signal;HPM_P1;HPM_P2
2022/09/20 00:00:38;;;;;;;1.13;0.93;;;;;;;9.80;95.65;97060.91;4908817;29;20307;-55
2022/09/20 00:03:05;;;;;;;3.97;0.83;;;;;;;9.74;94.94;97062.22;4908702;29;20269;-54
2022/09/20 00:05:33;;;;;;;1.30;1.07;;;;;;;9.72;96.63;97068.63;4908272;29;20294;-55
2022/09/20 00:08:02;;;;;;;2.13;1.00;;;;;;;9.76;95.83;97060.31;4909475;29;20303;-55
2022/09/20 00:10:29;;;;;;;2.50;1.23;;;;;;;9.65;96.69;97062.16;4909338;29;20299;-55
2022/09/20 00:12:56;;;;;;;0.77;0.77;;;;;;;9.59;95.22;97066.16;4909905;29;20314;-55
2022/09/20 00:15:23;;;;;;;2.30;1.00;;;;;;;9.59;93.93;97060.88;4911528;29;20283;-54
2022/09/20 00:17:50;;;;;;;1.63;0.90;;;;;;;9.55;93.77;97064.75;4911974;29;20642;-53
2022/09/20 00:20:16;;;;;;;1.77;0.80;;;;;;;9.50;97.21;97066.91;4924780;29;20638;-56
2022/09/20 00:22:43;;;;;;;1.67;1.30;;;;;;;9.48;98.04;97071.50;4924367;29;20272;-54
2022/09/20 00:25:11;;;;;;;1.37;0.80;;;;;;;9.48;99.16;97071.50;4920818;29;20211;-55
2022/09/20 00:27:37;;;;;;;2.23;1.27;;;;;;;9.51;97.91;97076.50;4908829;29;20208;-55
2022/09/20 00:30:05;;;;;;;1.23;1.07;;;;;;;9.46;97.87;97063.69;4908830;29;20300;-55
2022/09/20 00:32:32;;;;;;;2.27;1.13;;;;;;;9.38;98.49;97070.56;4907203;29;20269;-55
2022/09/20 00:35:06;;;;;;;3.17;1.10;;;;;;;9.34;98.15;97069.97;4908321;29;20230;-53
2022/09/20 00:37:33;;;;;;;1.00;0.90;;;;;;;9.35;96.53;97062.91;4907119;29;20530;-55
2022/09/20 00:40:03;;;;;;;2.40;1.40;;;;;;;9.26;99.43;97066.28;4906651;29;20704;-54
2022/09/20 00:42:32;;;;;;;1.73;1.00;;;;;;;9.23;99.05;97077.09;4908030;29;20216;-55
2022/09/20 00:44:59;;;;;;;2.73;1.03;;;;;;;9.17;99.37;97069.66;4909380;29;20308;-54
2022/09/20 00:47:34;;;;;;;2.90;1.00;;;;;;;9.20;100.00;97061.50;4909368;29;20312;-54
2022/09/20 00:50:07;;;;;;;1.47;0.80;;;;;;;9.24;100.00;97057.66;4906406;29;20211;-55
2022/09/20 00:52:35;;;;;;;2.33;1.23;;;;;;;9.20;98.17;97057.06;4906547;29;20239;-55
2022/09/20 00:55:04;;;;;;;1.77;1.07;;;;;;;9.22;100.00;97055.13;4906703;29;20287;-55
2022/09/20 00:57:34;;;;;;;1.67;0.97;;;;;;;9.22;99.97;97054.28;4906881;29;20646;-55
2022/09/20 01:00:02;;;;;;;1.90;1.00;;;;;;;9.28;99.98;97053.81;4906775;29;20204;-54
2022/09/20 01:02:30;;;;;;;1.53;0.93;;;;;;;9.21;99.28;97052.63;4906572;29;20840;-55
2022/09/20 01:04:57;;;;;;;2.37;0.90;;;;;;;9.17;99.67;97048.56;4911655;29;20276;-55
2022/09/20 01:07:24;;;;;;;4.20;1.20;;;;;;;9.15;99.43;97055.75;4924679;29;20203;-55
2022/09/20 01:09:51;;;;;;;5.10;1.47;;;;;;;9.14;100.00;97062.00;4906346;29;20704;-55
2022/09/20 01:12:20;;;;;;;5.27;1.60;;;;;;;9.06;100.00;97057.34;4905769;29;20756;-55
2022/09/20 01:14:50;;;;;;;2.20;1.30;;;;;;;9.04;100.00;97056.63;4905852;29;20223;-55
2022/09/20 01:17:18;;;;;;;3.70;1.20;;;;;;;9.08;99.38;97051.94;4906160;29;20205;-56
2022/09/20 01:19:53;;;;;;;2.00;1.17;;;;;;;9.01;100.00;97062.13;4905960;29;21418;-55
2022/09/20 01:22:22;;;;;;;2.37;1.23;;;;;;;9.05;100.00;97054.81;4905835;29;20214;-56
2022/09/20 01:24:54;;;;;;;2.53;1.40;;;;;;;9.03;99.99;97051.47;4905640;29;20212;-55
2022/09/20 01:27:23;;;;;;;2.83;1.47;;;;;;;8.94;100.00;97048.63;4906038;29;20228;-55
2022/09/20 01:30:04;;;;;;;2.37;1.00;;;;;;;8.92;100.00;97050.53;4906307;29;20287;-54
2022/09/20 01:32:38;;;;;;;2.90;1.10;;;;;;;8.95;100.00;97046.81;4906038;29;20688;-55
2022/09/20 01:35:06;;;;;;;2.73;1.53;;;;;;;8.92;100.00;97037.34;4905893;29;20232;-55
2022/09/20 01:37:36;;;;;;;2.10;1.47;;;;;;;8.88;100.00;97038.56;4906036;29;20219;-54
2022/09/20 01:40:09;;;;;;;2.30;1.40;;;;;;;8.91;100.00;97035.69;4906056;29;20212;-54
2022/09/20 01:42:38;;;;;;;1.97;1.30;;;;;;;8.88;100.00;97041.19;4906138;29;20264;-55
2022/09/20 01:45:11;;;;;;;2.77;1.67;;;;;;;8.87;100.00;97047.44;4905503;29;20273;-53
2022/09/20 01:47:41;;;;;;;5.43;1.60;;;;;;;8.88;100.00;97041.19;4905301;29;20246;-54
2022/09/20 01:50:15;;;;;;;2.17;1.47;;;;;;;8.87;100.00;97039.50;4905586;29;20219;-55
2022/09/20 01:53:21;;;;;;;1.57;1.47;;;;;;;8.83;100.00;97043.34;4905365;29;20311;-55
2022/09/20 01:56:11;;;;;;;1.57;1.37;;;;;;;8.85;100.00;97036.19;4902919;29;20311;-55
2022/09/20 01:58:56;;;;;;;1.50;1.40;;;;;;;8.80;100.00;97040.97;4906164;29;20314;-56
2022/09/20 02:01:41;;;;;;;2.43;1.43;;;;;;;8.83;100.00;97038.06;4905539;29;20262;-53
2022/09/20 02:04:39;;;;;;;1.53;1.30;;;;;;;8.75;100.00;97037.84;4906208;29;20239;-55
2022/09/20 02:07:21;;;;;;;7.30;1.80;;;;;;;8.72;100.00;97043.38;4905046;29;20201;-54
2022/09/20 02:10:12;;;;;;;2.27;1.50;;;;;;;8.68;100.00;97039.28;4905541;29;20716;-56
2022/09/20 02:12:51;;;;;;;1.90;1.53;;;;;;;8.73;100.00;97038.94;4902973;29;20765;-53
2022/09/20 02:15:43;;;;;;;3.53;1.53;;;;;;;8.70;100.00;97042.66;4916030;29;20212;-55
2022/09/20 02:18:21;;;;;;;1.77;1.50;;;;;;;8.68;100.00;97038.47;4913941;29;20204;-54
2022/09/20 02:20:52;;;;;;;2.43;1.50;;;;;;;8.59;100.00;97044.47;4906419;29;20283;-55
2022/09/20 02:23:36;;;;;;;3.27;1.43;;;;;;;8.53;100.00;97037.88;4915354;29;20287;-55
2022/09/20 02:26:11;;;;;;;1.73;1.30;;;;;;;8.58;100.00;97043.63;4919002;29;20229;-55
2022/09/20 02:28:52;;;;;;;3.87;1.47;;;;;;;8.53;100.00;97039.69;4907669;29;21261;-54
2022/09/20 02:31:28;;;;;;;2.30;1.30;;;;;;;8.52;100.00;97038.84;4906017;29;20338;-53
2022/09/20 02:34:18;;;;;;;2.60;1.40;;;;;;;8.52;100.00;97043.25;4905334;29;20212;-55
2022/09/20 02:36:55;;;;;;;2.90;1.40;;;;;;;8.57;100.00;97041.97;4922901;29;20228;-53
2022/09/20 02:39:23;;;;;;;3.30;1.67;;;;;;;8.53;100.00;97050.22;4914570;29;20226;-56
2022/09/20 02:41:55;;;;;;;2.33;1.60;;;;;;;8.55;100.00;97037.75;4910816;29;20304;-54
2022/09/20 02:44:29;;;;;;;2.70;1.53;;;;;;;8.55;100.00;97043.03;4904854;29;20328;-54
2022/09/20 02:47:05;;;;;;;3.77;1.93;;;;;;;8.56;100.00;97050.81;4905316;29;20842;-53
2022/09/20 02:49:36;;;;;;;3.23;1.83;;;;;;;8.54;100.00;97052.72;4905476;29;20287;-55
2022/09/20 02:52:10;;;;;;;1.73;1.63;;;;;;;8.57;100.00;97049.88;4905550;29;20200;-54
2022/09/20 02:54:44;;;;;;;1.53;1.50;;;;;;;8.54;100.00;97047.44;4905225;29;20699;-53
2022/09/20 02:57:17;;;;;;;2.53;1.33;;;;;;;8.55;100.00;97054.41;4908882;29;20223;-55
2022/09/20 02:59:47;;;;;;;2.53;1.80;;;;;;;8.53;100.00;97051.06;4908554;29;20219;-55
2022/09/20 03:02:20;;;;;;;3.43;1.70;;;;;;;8.49;100.00;97054.91;4908582;29;20646;-54
2022/09/20 03:04:57;;;;;;;1.97;1.60;;;;;;;8.46;100.00;97052.50;4909167;29;20223;-53
2022/09/20 03:07:32;;;;;;;2.27;1.57;;;;;;;8.43;100.00;97058.84;4910937;29;20284;-55
2022/09/20 03:10:07;;;;;;;3.03;1.83;;;;;;;8.48;100.00;97056.69;4912082;29;20283;-55
2022/09/20 03:12:43;;;;;;;2.37;1.70;;;;;;;8.44;100.00;97051.78;4911803;29;20708;-54
2022/09/20 03:15:17;;;;;;;2.10;1.50;;;;;;;8.41;100.00;97063.41;4913577;29;20204;-54
2022/09/20 03:17:48;;;;;;;3.27;1.30;;;;;;;8.42;100.00;97061.59;4914823;29;21603;-53
2022/09/20 03:20:24;;;;;;;1.43;1.30;;;;;;;8.48;100.00;97063.75;4912086;29;20296;-55
2022/09/20 03:22:57;;;;;;;4.10;1.57;;;;;;;8.46;100.00;97065.69;4908692;29;20216;-55
2022/09/20 03:25:41;;;;;;;3.17;1.60;;;;;;;8.38;100.00;97068.91;4908164;29;20205;-53
2022/09/20 03:28:21;;;;;;;6.73;1.90;;;;;;;8.38;100.00;97068.06;4906909;29;20643;-55
2022/09/20 03:30:56;;;;;;;1.07;1.07;;;;;;;8.35;100.00;97073.59;4908377;29;20295;-54
2022/09/20 03:33:31;;;;;;;2.67;1.33;;;;;;;8.39;100.00;97064.50;4907641;29;20739;-54
2022/09/20 03:36:08;;;;;;;2.57;1.47;;;;;;;8.44;100.00;97068.44;4908440;29;20235;-55
2022/09/20 03:39:24;;;;;;;1.80;1.43;;;;;;;8.36;100.00;97070.00;4907844;29;20208;-55
2022/09/20 03:42:01;;;;;;;1.63;1.50;;;;;;;8.36;100.00;97070.00;4902682;29;20590;-55
2022/09/20 03:44:42;;;;;;;3.63;1.23;;;;;;;8.33;100.00;97065.78;4907805;29;20231;-53
2022/09/20 03:47:19;;;;;;;3.00;1.30;;;;;;;8.27;100.00;97066.22;4907998;29;20197;-53
2022/09/20 03:50:07;;;;;;;4.53;2.60;;;;;;;8.34;100.00;97070.09;4907986;29;20199;-53
2022/09/20 03:52:59;;;;;;;3.23;1.20;;;;;;;8.38;100.00;97063.63;4907704;29;20712;-54
2022/09/20 03:55:45;;;;;;;2.20;1.40;;;;;;;8.34;100.00;97067.47;4907675;29;20497;-54
2022/09/20 03:58:32;;;;;;;2.23;1.10;;;;;;;8.37;100.00;97061.13;4907702;29;20290;-55
2022/09/20 04:01:07;;;;;;;2.97;1.10;;;;;;;8.37;100.00;97061.13;4907646;29;20287;-55
2022/09/20 04:03:38;;;;;;;1.83;1.20;;;;;;;8.37;100.00;97061.97;4907533;29;20388;-54
2022/09/20 04:06:19;;;;;;;2.60;1.30;;;;;;;8.36;100.00;97062.09;4907276;29;20294;-53
2022/09/20 04:08:58;;;;;;;1.43;1.20;;;;;;;8.34;100.00;97064.84;4906984;29;20228;-55
2022/09/20 04:11:30;;;;;;;1.77;1.63;;;;;;;8.33;100.00;97065.78;4907087;29;20199;-54
2022/09/20 04:14:01;;;;;;;3.60;1.77;;;;;;;8.36;100.00;97062.09;4906865;29;20722;-53
2022/09/20 04:16:35;;;;;;;2.57;1.83;;;;;;;8.31;100.00;97065.06;4906643;29;20295;-53
2022/09/20 04:19:06;;;;;;;4.90;4.40;;;;;;;8.31;100.00;97065.06;4907107;29;20331;-54
2022/09/20 04:21:35;;;;;;;3.33;2.80;;;;;;;8.34;100.00;97075.38;4906628;29;20216;-55
2022/09/20 04:24:11;;;;;;;1.87;1.40;;;;;;;8.32;100.00;97071.19;4906925;29;20594;-52
2022/09/20 04:26:41;;;;;;;2.27;1.57;;;;;;;8.29;100.00;97076.69;4906330;29;20213;-52
2022/09/20 04:29:20;;;;;;;3.10;1.43;;;;;;;8.17;100.00;97077.59;4907417;29;20343;-56
2022/09/20 04:31:50;;;;;;;1.80;1.30;;;;;;;8.18;100.00;97076.66;4907046;29;20299;-54
2022/09/20 04:34:22;;;;;;;2.60;1.37;;;;;;;8.17;100.00;97077.59;4907206;29;20228;-54
2022/09/20 04:37:01;;;;;;;3.20;1.47;;;;;;;8.18;100.00;97081.91;4907116;29;20611;-53
2022/09/20 04:39:42;;;;;;;4.03;1.80;;;;;;;8.15;100.00;97076.88;4908651;29;21100;-54
2022/09/20 04:42:45;;;;;;;3.23;1.57;;;;;;;8.11;100.00;97075.44;4907954;29;20228;-55
2022/09/20 04:45:34;;;;;;;2.80;1.33;;;;;;;8.09;100.00;97083.44;4906575;29;20224;-63
2022/09/20 04:48:38;;;;;;;4.50;1.97;;;;;;;8.06;100.00;97088.13;4906426;29;20238;-56
2022/09/20 04:51:29;;;;;;;3.17;1.63;;;;;;;8.09;100.00;97082.59;4906598;29;20208;-56
2022/09/20 04:54:40;;;;;;;2.20;1.37;;;;;;;8.01;100.00;97083.19;4906597;29;20320;-55
2022/09/20 04:57:33;;;;;;;3.57;1.47;;;;;;;7.94;100.00;97084.59;4908023;29;20200;-54
2022/09/20 05:00:06;;;;;;;3.60;1.53;;;;;;;7.90;100.00;97080.56;4897815;29;20317;-59
2022/09/20 05:03:20;;;;;;;3.57;1.67;;;;;;;7.89;100.00;97087.59;4913942;29;20219;-55
2022/09/20 05:06:00;;;;;;;2.20;1.63;;;;;;;7.88;100.00;97095.59;4856802;29;20264;-55
2022/09/20 05:08:59;;;;;;;2.73;1.70;;;;;;;7.85;100.00;97094.06;4911061;29;20385;-55
2022/09/20 05:11:46;;;;;;;2.93;1.63;;;;;;;7.87;100.00;97094.75;4866100;29;20225;-54
2022/09/20 05:14:27;;;;;;;2.47;1.83;;;;;;;7.86;100.00;97094.91;4903529;29;20636;-54
2022/09/20 05:17:06;;;;;;;3.83;1.87;;;;;;;7.87;100.00;97093.91;4906251;29;20870;-54
2022/09/20 05:19:38;;;;;;;2.10;1.90;;;;;;;7.81;100.00;97094.38;4905776;29;20295;-55
2022/09/20 05:22:31;;;;;;;2.00;1.70;;;;;;;7.83;100.00;97106.47;4906713;29;20210;-55
2022/09/20 05:25:22;;;;;;;2.40;2.20;;;;;;;7.78;100.00;97098.09;4906414;29;20208;-53
2022/09/20 05:27:53;;;;;;;2.67;1.90;;;;;;;7.81;100.00;97103.13;4902912;29;20290;-55
2022/09/20 05:30:26;;;;;;;3.47;1.83;;;;;;;7.83;100.00;97103.03;4907104;29;20228;-55
2022/09/20 05:33:04;;;;;;;1.70;1.60;;;;;;;7.84;100.00;97105.53;4906312;29;20298;-55
2022/09/20 05:35:34;;;;;;;2.50;1.77;;;;;;;7.86;100.00;97114.19;4906080;29;20227;-53
2022/09/20 05:38:05;;;;;;;5.80;2.23;;;;;;;7.85;100.00;97112.50;4906097;29;20204;-55
2022/09/20 05:40:38;;;;;;;2.90;2.03;;;;;;;7.92;100.00;97115.50;4906010;29;20236;-55
2022/09/20 05:43:10;;;;;;;3.83;2.17;;;;;;;7.96;100.00;97115.16;4906278;29;20219;-55
2022/09/20 05:45:52;;;;;;;3.10;1.90;;;;;;;8.01;100.00;97113.00;4906450;29;20204;-55
2022/09/20 05:48:24;;;;;;;3.23;2.30;;;;;;;8.10;100.00;97118.53;4907226;29;20298;-55
2022/09/20 05:50:56;;;;;;;3.63;2.07;;;;;;;8.13;100.00;97123.56;4907562;29;20267;-54
2022/09/20 05:53:50;;;;;;;2.40;1.97;;;;;;;8.21;100.00;97114.13;4914078;29;20228;-55
2022/09/20 05:56:24;;;;;;;3.97;2.30;;;;;;;8.29;100.00;97119.66;4918656;29;20208;-55
2022/09/20 05:58:59;;;;;;;4.33;1.90;;;;;;;8.32;100.00;97115.97;4910928;29;20584;-59
2022/09/20 06:01:30;;;;;;;4.77;2.07;;;;;;;8.40;100.00;97124.13;4907799;29;20348;-55
2022/09/20 06:04:10;;;;;;;5.23;2.00;;;;;;;8.45;100.00;97127.25;4907854;29;20196;-55
2022/09/20 06:06:47;;;;;;;3.70;1.83;;;;;;;8.50;100.00;97120.66;4906933;29;20330;-54
2022/09/20 06:09:30;;;;;;;4.43;2.07;;;;;;;8.61;100.00;97127.72;4906491;29;20230;-55
2022/09/20 06:12:21;;;;;;;5.47;2.50;;;;;;;8.74;100.00;97125.00;4906418;29;20208;-55
2022/09/20 06:14:52;;;;;;;3.27;2.20;;;;;;;8.84;100.00;97129.44;4907690;29;20271;-54
2022/09/20 06:17:27;;;;;;;3.67;2.43;;;;;;;9.01;100.00;97128.09;4907200;29;20208;-55
2022/09/20 06:20:06;;;;;;;3.30;2.10;;;;;;;9.27;100.00;97120.75;4907856;29;20291;-55
2022/09/20 06:22:36;;;;;;;2.67;1.90;;;;;;;9.30;100.00;97131.03;4907353;29;20207;-55
2022/09/20 06:25:10;;;;;;;6.13;1.97;;;;;;;9.62;100.00;97124.00;4908734;29;20694;-60
2022/09/20 06:27:41;;;;;;;4.03;2.20;;;;;;;10.49;94.56;97128.13;4907087;29;20299;-54
2022/09/20 06:30:14;;;;;;;5.73;2.33;;;;;;;11.41;87.56;97133.22;4906381;29;20646;-55
2022/09/20 06:32:54;;;;;;;3.47;2.10;;;;;;;12.08;85.37;97123.72;4910488;29;20209;-57
2022/09/20 06:35:23;;;;;;;4.60;2.30;;;;;;;12.67;82.32;97129.59;4911018;29;20746;-56
2022/09/20 06:43:26;;;;;;;4.37;2.63;;;;;;;14.08;74.71;97133.59;4908724;29;20736;-55
2022/09/20 06:45:52;;;;;;;2.30;1.95;;;;;;;14.00;75.40;97130.84;4909075;29;20228;-54
2022/09/20 06:48:20;;;;;;;4.53;2.80;;;;;;;14.01;73.98;97135.19;4908239;29;20762;-55
2022/09/20 06:50:47;;;;;;;3.90;2.53;;;;;;;14.18;74.95;97134.34;4908843;29;20205;-55
2022/09/20 06:53:16;;;;;;;5.80;2.80;;;;;;;14.45;70.74;97132.44;4909179;29;20291;-54
2022/09/20 06:55:43;;;;;;;6.40;3.07;;;;;;;14.01;70.62;97132.53;4908120;29;20680;-55
2022/09/20 06:58:10;;;;;;;8.13;3.30;;;;;;;13.96;71.98;97139.16;4908566;29;20228;-55
2022/09/20 07:00:38;;;;;;;4.33;2.70;;;;;;;13.67;73.97;97137.69;4908448;29;20308;-56
2022/09/20 07:03:05;;;;;;;4.50;3.03;;;;;;;13.40;75.12;97143.84;4908542;29;20656;-56
2022/09/20 07:05:33;;;;;;;6.63;2.97;;;;;;;13.05;77.81;97139.25;4908278;29;20723;-55
2022/09/20 07:08:00;;;;;;;3.87;2.63;;;;;;;12.69;80.11;97138.25;4908173;29;20204;-55
2022/09/20 07:10:27;;;;;;;5.17;2.43;;;;;;;12.46;82.65;97139.56;4908476;29;20207;-55
2022/09/20 07:12:59;;;;;;;4.00;2.70;;;;;;;12.43;81.37;97142.53;4908266;29;20200;-53
2022/09/20 07:15:26;;;;;;;5.23;2.73;;;;;;;12.01;82.53;97141.16;4907905;29;20213;-56
2022/09/20 07:17:52;;;;;;;5.10;2.67;;;;;;;12.02;82.95;97140.16;4908550;29;20424;-53
2022/09/20 07:20:19;;;;;;;5.10;2.87;;;;;;;11.94;83.26;97139.03;4908684;29;20309;-55
2022/09/20 07:22:48;;;;;;;3.17;2.70;;;;;;;11.90;87.43;97144.78;4908232;29;20207;-55
2022/09/20 07:25:14;;;;;;;4.27;2.60;;;;;;;11.87;87.20;97145.88;4907761;29;20303;-55
2022/09/20 07:27:41;;;;;;;5.47;2.90;;;;;;;12.04;84.71;97141.72;4908570;29;20244;-54
2022/09/20 07:30:11;;;;;;;5.17;2.90;;;;;;;12.01;87.34;97136.66;4908166;29;20555;-56
2022/09/20 07:32:38;;;;;;;4.83;2.73;;;;;;;12.00;85.80;97144.78;4917364;29;20224;-54
2022/09/20 07:35:06;;;;;;;5.63;2.67;;;;;;;11.93;83.50;97150.66;4925233;29;20227;-54
2022/09/20 07:37:32;;;;;;;5.67;2.60;;;;;;;12.13;85.96;97142.66;4914737;29;20208;-54
2022/09/20 07:40:01;;;;;;;4.57;2.67;;;;;;;12.09;86.45;97143.94;4911724;29;20324;-55
2022/09/20 07:42:28;;;;;;;4.90;2.40;;;;;;;12.00;86.78;97139.47;4907751;29;20220;-55
2022/09/20 07:44:55;;;;;;;3.47;2.50;;;;;;;12.16;86.49;97150.34;4907611;29;20242;-55
2022/09/20 07:47:24;;;;;;;3.80;2.70;;;;;;;12.17;85.47;97146.72;4907823;29;20208;-55
2022/09/20 07:49:51;;;;;;;2.90;2.30;;;;;;;12.22;84.47;97147.16;4907960;29;20199;-55
2022/09/20 07:52:18;;;;;;;3.87;2.03;;;;;;;12.29;81.54;97145.59;4891130;29;20196;-55
2022/09/20 07:54:46;;;;;;;5.13;2.60;;;;;;;12.44;81.32;97149.47;4907355;29;20685;-60
2022/09/20 07:57:13;;;;;;;6.00;2.20;;;;;;;12.54;80.54;97152.94;4907577;29;20209;-54
2022/09/20 07:59:40;;;;;;;4.03;1.90;;;;;;;12.56;78.47;97150.16;4907668;29;20235;-55
2022/09/20 08:02:07;;;;;;;5.40;2.20;;;;;;;12.63;80.71;97154.75;4906939;29;20247;-55
2022/09/20 08:04:34;;;;;;;5.40;2.43;;;;;;;12.73;77.27;97160.03;4907400;29;20286;-54
2022/09/20 08:07:00;;;;;;;2.93;2.00;;;;;;;12.69;76.67;97158.63;4907438;29;20205;-55
2022/09/20 08:09:27;;;;;;;3.60;2.13;;;;;;;12.71;79.00;97162.84;4907431;29;21455;-55
2022/09/20 08:11:55;;;;;;;5.60;3.07;;;;;;;12.72;78.56;97156.53;4907220;29;20299;-55
2022/09/20 08:14:24;;;;;;;6.10;2.60;;;;;;;12.64;77.91;97156.44;4906711;29;20279;-55
2022/09/20 08:16:51;;;;;;;7.47;2.40;;;;;;;12.71;78.99;97165.50;4907426;29;20204;-55
2022/09/20 08:19:19;;;;;;;4.47;2.50;;;;;;;12.77;77.70;97162.25;4907484;29;20212;-55
2022/09/20 08:21:46;;;;;;;6.43;2.70;;;;;;;12.85;79.22;97167.69;4907828;29;20205;-55
2022/09/20 08:24:13;;;;;;;3.53;2.57;;;;;;;12.90;75.68;97160.13;4907962;29;20296;-54
2022/09/20 08:26:40;;;;;;;4.13;2.70;;;;;;;12.91;74.98;97169.75;4907230;29;20298;-56
2022/09/20 08:29:07;;;;;;;4.63;2.57;;;;;;;13.03;75.37;97169.59;4907078;29;20239;-54
2022/09/20 08:31:37;;;;;;;4.37;2.30;;;;;;;13.04;76.32;97173.94;4907877;29;20247;-54
2022/09/20 08:34:05;;;;;;;12.53;3.77;;;;;;;12.82;74.61;97173.25;4907167;29;20232;-53
2022/09/20 08:36:33;;;;;;;7.97;3.20;;;;;;;12.88;77.05;97170.06;4907256;29;20220;-55
2022/09/20 08:39:00;;;;;;;3.30;2.60;;;;;;;13.11;75.77;97177.72;4907512;29;20303;-53
2022/09/20 08:41:29;;;;;;;4.63;2.70;;;;;;;13.22;75.09;97172.19;4908439;29;20222;-55
2022/09/20 08:43:59;;;;;;;4.50;2.90;;;;;;;13.26;73.24;97173.56;4906638;29;20249;-54
2022/09/20 08:46:28;;;;;;;5.67;2.57;;;;;;;13.45;73.69;97165.53;4906980;29;20286;-55
2022/09/20 08:48:58;;;;;;;5.43;2.53;;;;;;;13.73;74.51;97177.81;4906971;29;20570;-54
2022/09/20 08:51:29;;;;;;;7.37;2.77;;;;;;;14.07;69.20;97169.16;4906360;29;20208;-55
2022/09/20 08:53:56;;;;;;;4.67;3.00;;;;;;;14.28;68.74;97170.53;4906361;29;20205;-55
2022/09/20 08:56:33;;;;;;;3.40;2.10;;;;;;;14.60;69.63;97163.81;4906364;29;20219;-54
2022/09/20 08:58:59;;;;;;;4.57;2.30;;;;;;;14.92;69.48;97169.38;4906867;29;20538;-54
2022/09/20 09:01:28;;;;;;;5.87;3.23;;;;;;;15.15;69.29;97162.53;4906558;29;20226;-55
2022/09/20 09:03:58;;;;;;;6.30;2.23;;;;;;;15.49;67.04;97167.88;4906268;29;20212;-55
2022/09/20 09:06:25;;;;;;;5.10;2.70;;;;;;;15.49;65.03;97164.34;4907074;29;20291;-55
2022/09/20 09:08:52;;;;;;;5.53;1.97;;;;;;;15.53;61.87;97163.03;4906837;29;20204;-55
2022/09/20 09:11:22;;;;;;;5.63;1.90;;;;;;;15.87;63.63;97159.31;4906480;29;20304;-54
2022/09/20 09:13:51;;;;;;;6.35;2.13;;;;;;;16.08;62.40;97156.22;4905932;29;20719;-55
2022/09/20 09:16:19;;;;;;;5.30;2.05;;;;;;;16.22;60.79;97152.88;4906170;29;20242;-55
2022/09/20 09:18:48;;;;;;;6.78;1.92;;;;;;;16.39;62.41;97151.06;4906213;29;20216;-55
2022/09/20 09:21:20;;;;;;;4.18;1.63;;;;;;;16.54;59.21;97149.41;4906180;29;20200;-55
2022/09/20 09:23:51;;;;;;;4.55;1.60;;;;;;;16.75;55.54;97160.41;4906309;29;20204;-55
2022/09/20 09:26:21;;;;;;;3.58;2.10;;;;;;;17.05;56.68;97158.84;4912024;29;20202;-54
2022/09/20 09:28:48;;;;;;;5.25;1.90;;;;;;;17.22;54.81;97155.13;4927322;29;20225;-55
2022/09/20 09:31:24;;;;;;;4.13;1.80;;;;;;;17.24;55.34;97160.31;4918956;29;20270;-55
2022/09/20 09:33:51;;;;;;;2.60;1.30;;;;;;;17.61;57.23;97151.66;4911833;29;20215;-53
2022/09/20 09:36:24;;;;;;;4.05;2.00;;;;;;;17.92;53.56;97142.63;4926357;29;20238;-55
2022/09/20 09:39:12;;;;;;;6.00;2.00;;;;;;;17.74;51.34;97149.28;4925244;29;20177;-55
2022/09/20 09:41:39;;;;;;;4.32;2.00;;;;;;;17.64;52.66;97146.78;4906437;29;20243;-54
2022/09/20 09:44:09;;;;;;;6.60;1.92;;;;;;;17.96;54.51;97153.00;4905510;29;20358;-55
2022/09/20 09:46:38;;;;;;;3.45;1.75;;;;;;;18.20;53.46;97142.13;4906000;29;20208;-55
2022/09/20 09:49:08;;;;;;;5.07;1.48;;;;;;;17.92;51.46;97130.28;4906164;29;20546;-55
2022/09/20 09:51:37;;;;;;;3.75;1.50;;;;;;;18.09;52.08;97134.50;4905581;29;20236;-56
2022/09/20 09:54:04;;;;;;;6.47;1.85;;;;;;;17.92;50.73;97132.97;4905539;29;20212;-57
2022/09/20 09:56:47;;;;;;;5.93;1.50;;;;;;;17.96;52.74;97136.94;4905637;29;20336;-54
2022/09/20 09:59:48;;;;;;;3.28;1.30;;;;;;;18.29;49.75;97133.00;4905829;29;20260;-55
2022/09/20 10:02:28;;;;;;;2.30;1.15;;;;;;;18.12;48.44;97140.34;4906120;29;20219;-55
2022/09/20 10:05:02;;;;;;;3.67;1.20;;;;;;;18.22;48.20;97135.59;4907100;29;20196;-55
2022/09/20 10:07:34;;;;;;;3.70;1.50;;;;;;;18.51;48.16;97129.53;4909588;29;20626;-55
2022/09/20 10:10:06;;;;;;;2.08;1.30;;;;;;;18.45;49.15;97127.56;4909736;29;20242;-56
2022/09/20 10:12:51;;;;;;;3.78;0.95;;;;;;;18.61;47.18;97130.09;4909032;29;20196;-54
2022/09/20 10:15:28;;;;;;;5.60;2.42;;;;;;;18.38;45.42;97134.63;4908567;29;20661;-54
2022/09/20 10:18:07;;;;;;;4.85;1.48;;;;;;;18.77;49.32;97127.28;4909316;29;20203;-54
2022/09/20 10:20:52;;;;;;;2.17;1.00;;;;;;;18.83;44.34;97129.22;4909241;29;20212;-55
2022/09/20 10:23:40;;;;;;;3.13;1.45;;;;;;;18.52;46.42;97125.84;4909162;29;20693;-54
2022/09/20 10:26:13;;;;;;;2.17;1.20;;;;;;;18.15;46.68;97120.41;4908636;29;20255;-56
2022/09/20 10:28:49;;;;;;;2.72;1.23;;;;;;;18.55;46.66;97114.75;4908853;29;20645;-54
2022/09/20 10:31:24;;;;;;;3.42;1.40;;;;;;;18.91;49.15;97120.28;4909518;29;20191;-55
2022/09/20 10:33:54;;;;;;;3.30;1.55;;;;;;;18.86;47.31;97123.50;4909160;29;20204;-55
2022/09/20 10:36:26;;;;;;;2.85;1.60;;;;;;;19.03;47.70;97126.00;4908723;29;20603;-55
2022/09/20 10:38:59;;;;;;;6.28;1.30;;;;;;;18.60;47.03;97106.19;4908872;29;20208;-55
2022/09/20 10:44:36;;;;;;;2.15;1.33;;;;;;;17.70;48.88;97118.53;4908539;29;20323;-55
2022/09/20 10:47:08;;;;;;;4.05;1.60;;;;;;;17.19;53.26;97117.22;4908747;29;20188;-55
2022/09/20 10:49:36;;;;;;;4.95;1.55;;;;;;;16.63;51.00;97113.69;4909058;29;20204;-55
2022/09/20 10:52:14;;;;;;;3.30;1.30;;;;;;;16.88;52.60;97115.31;4908959;29;20201;-55
2022/09/20 10:54:53;;;;;;;4.68;1.63;;;;;;;17.50;51.24;97118.06;4908915;29;20222;-55
2022/09/20 10:57:31;;;;;;;3.22;1.48;;;;;;;18.03;50.89;97109.28;4908624;29;20235;-54
2022/09/20 11:00:04;;;;;;;3.03;1.52;;;;;;;18.27;48.47;97101.09;4908056;29;20206;-54
2022/09/20 11:02:41;;;;;;;3.83;1.50;;;;;;;18.03;49.13;97111.13;4908210;29;20224;-53
2022/09/20 11:05:38;;;;;;;3.25;1.65;;;;;;;17.74;49.47;97099.28;4909080;29;20271;-54
2022/09/20 11:08:10;;;;;;;3.65;1.60;;;;;;;18.04;50.73;97099.41;4907112;29;20272;-55
2022/09/20 11:10:42;;;;;;;3.80;1.77;;;;;;;18.10;49.25;97099.56;4908203;29;20204;-55
2022/09/20 11:13:19;;;;;;;4.70;1.50;;;;;;;18.38;48.04;97105.19;4908094;29;20197;-55
2022/09/20 11:15:51;;;;;;;2.22;1.73;;;;;;;18.71;50.50;97103.03;4908022;29;20299;-56
2022/09/20 11:18:22;;;;;;;3.35;1.55;;;;;;;18.91;47.79;97104.19;4908293;29;20259;-55
2022/09/20 11:20:56;;;;;;;1.98;1.27;;;;;;;18.86;46.40;97111.94;4908662;29;20284;-55
2022/09/20 11:23:28;;;;;;;3.47;1.23;;;;;;;19.21;47.72;97102.34;4908826;29;20236;-56
2022/09/20 11:25:57;;;;;;;3.10;1.65;;;;;;;19.32;45.24;97101.88;4909870;29;20200;-54
2022/09/20 11:28:27;;;;;;;5.55;1.67;;;;;;;19.34;46.77;97091.81;4909714;29;20284;-55
2022/09/20 11:30:59;;;;;;;6.50;1.73;;;;;;;19.69;46.22;97095.56;4909341;29;20207;-55
2022/09/20 11:33:28;;;;;;;1.02;0.98;;;;;;;19.82;44.30;97101.91;4910049;29;20223;-55
2022/09/20 11:35:58;;;;;;;2.78;1.20;;;;;;;19.74;43.99;97099.34;4909041;29;20243;-54
2022/09/20 11:38:30;;;;;;;3.30;1.60;;;;;;;19.19;44.45;97099.03;4908841;29;20204;-54
2022/09/20 11:41:01;;;;;;;2.50;1.45;;;;;;;19.57;43.34;97105.13;4908828;29;20267;-54
2022/09/20 11:43:30;;;;;;;2.78;1.33;;;;;;;19.65;44.30;97108.53;4909193;29;20215;-58
2022/09/20 11:46:00;;;;;;;3.17;1.20;;;;;;;19.78;45.71;97095.25;4907659;29;20192;-55
2022/09/20 11:48:29;;;;;;;1.90;1.40;;;;;;;19.56;41.48;97100.75;4908008;29;20570;-55
2022/09/20 11:51:37;;;;;;;3.20;1.20;;;;;;;19.58;42.15;97096.88;4907554;29;20212;-55
2022/09/20 11:54:19;;;;;;;2.25;1.25;;;;;;;19.80;40.79;97090.53;4907802;29;20307;-56
2022/09/20 11:56:52;;;;;;;1.65;1.33;;;;;;;20.11;42.95;97092.09;4907434;29;20585;-56
2022/09/20 11:59:30;;;;;;;3.25;1.33;;;;;;;20.22;40.87;97086.22;4907672;29;20200;-56
2022/09/20 12:01:59;;;;;;;2.83;1.55;;;;;;;20.54;39.88;97080.34;4907583;29;20215;-56
2022/09/20 12:04:28;;;;;;;1.90;1.20;;;;;;;20.72;40.58;97086.06;4907878;29;20214;-55
2022/09/20 12:07:00;;;;;;;2.45;1.48;;;;;;;20.38;43.29;97072.53;4906799;29;20698;-55
2022/09/20 12:09:29;;;;;;;3.10;1.30;;;;;;;20.70;41.24;97071.97;4907223;29;20215;-55
2022/09/20 12:11:58;;;;;;;2.15;1.13;;;;;;;20.37;39.63;97078.94;4907245;29;20672;-55
2022/09/20 12:14:26;;;;;;;1.67;1.38;;;;;;;19.47;39.76;97080.44;4907657;29;20204;-55